sensor_id;sensor_type;location;lat;lon;timestamp;temperature;humidity
39983;DHT22;25670;44.782;10.356;2023-08-21T00:01:24;26.50;99.90
39983;DHT22;25670;44.782;10.356;2023-08-21T00:03:50;25.20;99.90
39983;DHT22;25670;44.782;10.356;2023-08-21T00:06:16;25.80;99.90
39983;DHT22;25670;44.782;10.356;2023-08-21T00:08:42;26.40;99.90
39983;DHT22;25670;44.782;10.356;2023-08-21T00:11:08;26.20;99.90
39983;DHT22;25670;44.782;10.356;2023-08-21T00:13:34;26.40;99.90
39983;DHT22;25670;44.782;10.356;2023-08-21T00:16:01;26.00;99.90
39983;DHT22;25670;44.782;10.356;2023-08-21T00:18:27;25.90;99.90
39983;DHT22;25670;44.782;10.356;2023-08-21T00:20:53;25.90;99.90
39983;DHT22;25670;44.782;10.356;2023-08-21T00:23:20;25.70;99.90
39983;DHT22;25670;44.782;10.356;2023-08-21T00:25:47;25.20;99.90
39983;DHT22;25670;44.782;10.356;2023-08-21T00:28:13;25.90;99.90
39983;DHT22;25670;44.782;10.356;2023-08-21T00:30:42;26.00;99.90
39983;DHT22;25670;44.782;10.356;2023-08-21T00:33:10;25.90;99.90
39983;DHT22;25670;44.782;10.356;2023-08-21T00:35:36;25.90;99.90
39983;DHT22;25670;44.782;10.356;2023-08-21T00:38:02;25.80;99.90
39983;DHT22;25670;44.782;10.356;2023-08-21T00:40:30;25.90;99.90
39983;DHT22;25670;44.782;10.356;2023-08-21T00:42:56;25.80;99.90
39983;DHT22;25670;44.782;10.356;2023-08-21T00:52:49;25.90;99.90
39983;DHT22;25670;44.782;10.356;2023-08-21T00:55:16;26.00;99.90
39983;DHT22;25670;44.782;10.356;2023-08-21T00:57:43;25.80;99.90
39983;DHT22;25670;44.782;10.356;2023-08-21T01:00:10;25.90;99.90
39983;DHT22;25670;44.782;10.356;2023-08-21T01:02:36;25.70;99.90
39983;DHT22;25670;44.782;10.356;2023-08-21T01:05:03;25.50;99.90
39983;DHT22;25670;44.782;10.356;2023-08-21T01:07:34;25.90;99.90
39983;DHT22;25670;44.782;10.356;2023-08-21T01:10:18;25.70;99.90
39983;DHT22;25670;44.782;10.356;2023-08-21T01:12:57;25.40;99.90
39983;DHT22;25670;44.782;10.356;2023-08-21T01:15:28;25.50;99.90
39983;DHT22;25670;44.782;10.356;2023-08-21T01:17:55;25.10;99.90
39983;DHT22;25670;44.782;10.356;2023-08-21T01:20:26;25.30;99.90
39983;DHT22;25670;44.782;10.356;2023-08-21T01:22:52;24.60;99.90
39983;DHT22;25670;44.782;10.356;2023-08-21T01:25:18;24.70;99.90
39983;DHT22;25670;44.782;10.356;2023-08-21T01:27:48;25.20;99.90
39983;DHT22;25670;44.782;10.356;2023-08-21T01:30:14;25.20;99.90
39983;DHT22;25670;44.782;10.356;2023-08-21T01:35:16;25.00;99.90
39983;DHT22;25670;44.782;10.356;2023-08-21T01:37:43;24.70;99.90
39983;DHT22;25670;44.782;10.356;2023-08-21T01:40:10;24.70;99.90
39983;DHT22;25670;44.782;10.356;2023-08-21T01:42:38;21.80;99.90
39983;DHT22;25670;44.782;10.356;2023-08-21T01:45:05;25.10;99.90
39983;DHT22;25670;44.782;10.356;2023-08-21T01:47:31;25.10;99.90
39983;DHT22;25670;44.782;10.356;2023-08-21T01:49:57;24.60;99.90
39983;DHT22;25670;44.782;10.356;2023-08-21T01:52:23;25.00;99.90
39983;DHT22;25670;44.782;10.356;2023-08-21T01:54:50;24.90;99.90
39983;DHT22;25670;44.782;10.356;2023-08-21T01:57:17;25.10;99.90
39983;DHT22;25670;44.782;10.356;2023-08-21T01:59:43;25.20;99.90
39983;DHT22;25670;44.782;10.356;2023-08-21T02:02:11;25.00;99.90
39983;DHT22;25670;44.782;10.356;2023-08-21T02:04:37;25.00;99.90
39983;DHT22;25670;44.782;10.356;2023-08-21T02:07:03;25.00;99.90
39983;DHT22;25670;44.782;10.356;2023-08-21T02:09:29;25.30;99.90
39983;DHT22;25670;44.782;10.356;2023-08-21T02:11:55;24.70;99.90
39983;DHT22;25670;44.782;10.356;2023-08-21T02:14:22;24.60;99.90
39983;DHT22;25670;44.782;10.356;2023-08-21T02:16:48;24.80;99.90
39983;DHT22;25670;44.782;10.356;2023-08-21T02:19:15;24.70;99.90
39983;DHT22;25670;44.782;10.356;2023-08-21T02:21:43;24.60;99.90
39983;DHT22;25670;44.782;10.356;2023-08-21T02:24:09;24.50;99.90
39983;DHT22;25670;44.782;10.356;2023-08-21T02:26:38;24.50;99.90
39983;DHT22;25670;44.782;10.356;2023-08-21T02:29:04;24.40;99.90
39983;DHT22;25670;44.782;10.356;2023-08-21T02:31:30;24.60;99.90
39983;DHT22;25670;44.782;10.356;2023-08-21T02:33:56;24.60;99.90
39983;DHT22;25670;44.782;10.356;2023-08-21T02:36:22;24.60;99.90
39983;DHT22;25670;44.782;10.356;2023-08-21T02:38:49;24.50;99.90
39983;DHT22;25670;44.782;10.356;2023-08-21T02:41:16;24.50;99.90
39983;DHT22;25670;44.782;10.356;2023-08-21T02:43:44;24.40;99.90
39983;DHT22;25670;44.782;10.356;2023-08-21T02:46:10;24.70;99.90
39983;DHT22;25670;44.782;10.356;2023-08-21T02:48:37;24.70;99.90
39983;DHT22;25670;44.782;10.356;2023-08-21T02:51:03;24.30;99.90
39983;DHT22;25670;44.782;10.356;2023-08-21T02:53:30;24.00;99.90
39983;DHT22;25670;44.782;10.356;2023-08-21T02:55:56;24.40;99.90
39983;DHT22;25670;44.782;10.356;2023-08-21T02:58:22;24.30;99.90
39983;DHT22;25670;44.782;10.356;2023-08-21T03:00:48;24.30;99.90
39983;DHT22;25670;44.782;10.356;2023-08-21T03:03:14;24.20;99.90
39983;DHT22;25670;44.782;10.356;2023-08-21T03:05:41;24.00;99.90
39983;DHT22;25670;44.782;10.356;2023-08-21T03:08:07;27.60;99.90
39983;DHT22;25670;44.782;10.356;2023-08-21T03:13:00;24.10;99.90
39983;DHT22;25670;44.782;10.356;2023-08-21T03:15:26;24.10;99.90
39983;DHT22;25670;44.782;10.356;2023-08-21T03:17:53;24.10;99.90
39983;DHT22;25670;44.782;10.356;2023-08-21T03:20:19;24.00;99.90
39983;DHT22;25670;44.782;10.356;2023-08-21T03:22:46;24.10;99.90
39983;DHT22;25670;44.782;10.356;2023-08-21T03:25:13;24.00;99.90
39983;DHT22;25670;44.782;10.356;2023-08-21T03:27:39;24.20;99.90
39983;DHT22;25670;44.782;10.356;2023-08-21T03:30:07;24.30;99.90
39983;DHT22;25670;44.782;10.356;2023-08-21T03:32:33;24.10;99.90
39983;DHT22;25670;44.782;10.356;2023-08-21T03:37:26;23.90;99.90
39983;DHT22;25670;44.782;10.356;2023-08-21T03:39:52;24.10;99.90
39983;DHT22;25670;44.782;10.356;2023-08-21T03:44:45;24.00;99.90
39983;DHT22;25670;44.782;10.356;2023-08-21T03:49:51;23.80;99.90
39983;DHT22;25670;44.782;10.356;2023-08-21T03:57:14;23.90;99.90
39983;DHT22;25670;44.782;10.356;2023-08-21T03:59:40;23.70;99.90
39983;DHT22;25670;44.782;10.356;2023-08-21T04:02:06;23.80;99.90
39983;DHT22;25670;44.782;10.356;2023-08-21T04:04:32;23.80;99.90
39983;DHT22;25670;44.782;10.356;2023-08-21T04:06:59;23.80;99.90
39983;DHT22;25670;44.782;10.356;2023-08-21T04:09:25;23.70;99.90
39983;DHT22;25670;44.782;10.356;2023-08-21T04:11:51;23.30;99.90
39983;DHT22;25670;44.782;10.356;2023-08-21T04:16:44;23.60;99.90
39983;DHT22;25670;44.782;10.356;2023-08-21T04:19:10;23.60;99.90
39983;DHT22;25670;44.782;10.356;2023-08-21T04:21:36;23.60;99.90
39983;DHT22;25670;44.782;10.356;2023-08-21T04:28:56;23.40;99.90
39983;DHT22;25670;44.782;10.356;2023-08-21T04:31:23;23.30;99.90
39983;DHT22;25670;44.782;10.356;2023-08-21T04:33:49;23.40;99.90
39983;DHT22;25670;44.782;10.356;2023-08-21T04:36:17;23.20;99.90
39983;DHT22;25670;44.782;10.356;2023-08-21T04:38:46;23.80;99.90
39983;DHT22;25670;44.782;10.356;2023-08-21T04:41:13;23.10;99.90
39983;DHT22;25670;44.782;10.356;2023-08-21T04:43:42;23.30;99.90
39983;DHT22;25670;44.782;10.356;2023-08-21T04:46:10;23.30;99.90
39983;DHT22;25670;44.782;10.356;2023-08-21T04:48:38;23.30;99.90
39983;DHT22;25670;44.782;10.356;2023-08-21T04:51:06;23.50;99.90
39983;DHT22;25670;44.782;10.356;2023-08-21T04:53:32;22.90;99.90
39983;DHT22;25670;44.782;10.356;2023-08-21T04:55:59;23.00;99.90
39983;DHT22;25670;44.782;10.356;2023-08-21T05:00:53;23.70;99.90
39983;DHT22;25670;44.782;10.356;2023-08-21T05:03:19;23.60;99.90
39983;DHT22;25670;44.782;10.356;2023-08-21T05:05:56;23.60;99.90
39983;DHT22;25670;44.782;10.356;2023-08-21T05:08:24;24.10;99.90
39983;DHT22;25670;44.782;10.356;2023-08-21T05:10:59;23.80;99.90
39983;DHT22;25670;44.782;10.356;2023-08-21T05:13:29;23.40;99.90
39983;DHT22;25670;44.782;10.356;2023-08-21T05:15:56;23.90;99.90
39983;DHT22;25670;44.782;10.356;2023-08-21T05:18:25;23.90;99.90
39983;DHT22;25670;44.782;10.356;2023-08-21T05:20:55;24.10;99.90
39983;DHT22;25670;44.782;10.356;2023-08-21T05:23:22;24.20;99.90
39983;DHT22;25670;44.782;10.356;2023-08-21T05:25:51;24.20;99.90
39983;DHT22;25670;44.782;10.356;2023-08-21T05:28:17;24.20;99.90
39983;DHT22;25670;44.782;10.356;2023-08-21T05:30:46;24.10;99.90
39983;DHT22;25670;44.782;10.356;2023-08-21T05:35:42;24.60;99.90
39983;DHT22;25670;44.782;10.356;2023-08-21T05:38:10;24.90;99.90
39983;DHT22;25670;44.782;10.356;2023-08-21T05:40:36;24.70;99.90
39983;DHT22;25670;44.782;10.356;2023-08-21T05:43:03;24.80;99.90
39983;DHT22;25670;44.782;10.356;2023-08-21T05:45:30;24.70;99.90
39983;DHT22;25670;44.782;10.356;2023-08-21T05:47:57;25.10;99.90
39983;DHT22;25670;44.782;10.356;2023-08-21T05:50:23;25.30;99.90
39983;DHT22;25670;44.782;10.356;2023-08-21T05:52:49;25.30;99.90
39983;DHT22;25670;44.782;10.356;2023-08-21T05:55:16;25.20;99.90
39983;DHT22;25670;44.782;10.356;2023-08-21T05:57:42;25.20;99.90
39983;DHT22;25670;44.782;10.356;2023-08-21T06:00:09;25.50;99.90
39983;DHT22;25670;44.782;10.356;2023-08-21T06:02:41;25.40;99.90
39983;DHT22;25670;44.782;10.356;2023-08-21T06:05:11;25.80;99.90
39983;DHT22;25670;44.782;10.356;2023-08-21T06:07:38;25.90;99.90
39983;DHT22;25670;44.782;10.356;2023-08-21T06:10:07;25.80;99.90
39983;DHT22;25670;44.782;10.356;2023-08-21T06:12:34;25.90;99.90
39983;DHT22;25670;44.782;10.356;2023-08-21T06:15:00;26.00;99.90
39983;DHT22;25670;44.782;10.356;2023-08-21T06:17:27;25.90;99.90
39983;DHT22;25670;44.782;10.356;2023-08-21T06:19:54;25.60;99.90
39983;DHT22;25670;44.782;10.356;2023-08-21T06:22:21;26.60;99.90
39983;DHT22;25670;44.782;10.356;2023-08-21T06:24:47;26.50;99.90
39983;DHT22;25670;44.782;10.356;2023-08-21T06:29:43;26.50;99.90
39983;DHT22;25670;44.782;10.356;2023-08-21T06:32:09;26.50;99.90
39983;DHT22;25670;44.782;10.356;2023-08-21T06:34:37;27.00;99.90
39983;DHT22;25670;44.782;10.356;2023-08-21T06:37:03;26.70;99.90
39983;DHT22;25670;44.782;10.356;2023-08-21T06:39:31;26.70;99.90
39983;DHT22;25670;44.782;10.356;2023-08-21T06:41:57;26.80;99.90
39983;DHT22;25670;44.782;10.356;2023-08-21T06:44:31;26.80;99.90
39983;DHT22;25670;44.782;10.356;2023-08-21T06:46:58;26.90;99.90
39983;DHT22;25670;44.782;10.356;2023-08-21T06:49:25;27.00;99.90
39983;DHT22;25670;44.782;10.356;2023-08-21T06:51:51;27.70;99.90
39983;DHT22;25670;44.782;10.356;2023-08-21T06:54:17;27.10;99.90
39983;DHT22;25670;44.782;10.356;2023-08-21T06:56:44;27.40;99.90
39983;DHT22;25670;44.782;10.356;2023-08-21T06:59:10;27.70;99.90
39983;DHT22;25670;44.782;10.356;2023-08-21T07:01:36;27.50;99.90
39983;DHT22;25670;44.782;10.356;2023-08-21T07:04:03;27.60;99.90
39983;DHT22;25670;44.782;10.356;2023-08-21T07:06:30;27.60;99.90
39983;DHT22;25670;44.782;10.356;2023-08-21T07:08:57;27.70;99.90
39983;DHT22;25670;44.782;10.356;2023-08-21T07:11:23;27.90;99.90
39983;DHT22;25670;44.782;10.356;2023-08-21T07:13:49;27.40;99.90
39983;DHT22;25670;44.782;10.356;2023-08-21T07:16:15;27.80;99.90
39983;DHT22;25670;44.782;10.356;2023-08-21T07:18:41;28.00;99.90
39983;DHT22;25670;44.782;10.356;2023-08-21T07:21:07;28.20;99.90
39983;DHT22;25670;44.782;10.356;2023-08-21T07:23:34;28.30;99.90
39983;DHT22;25670;44.782;10.356;2023-08-21T07:26:02;28.40;99.90
39983;DHT22;25670;44.782;10.356;2023-08-21T07:28:29;28.50;99.90
39983;DHT22;25670;44.782;10.356;2023-08-21T07:30:57;28.60;99.90
39983;DHT22;25670;44.782;10.356;2023-08-21T07:33:24;28.70;99.90
39983;DHT22;25670;44.782;10.356;2023-08-21T07:36:06;28.70;99.90
39983;DHT22;25670;44.782;10.356;2023-08-21T07:38:32;28.80;99.90
39983;DHT22;25670;44.782;10.356;2023-08-21T07:41:03;28.90;99.90
39983;DHT22;25670;44.782;10.356;2023-08-21T07:43:30;29.10;99.90
39983;DHT22;25670;44.782;10.356;2023-08-21T07:45:56;29.20;99.90
39983;DHT22;25670;44.782;10.356;2023-08-21T07:48:22;29.30;99.90
39983;DHT22;25670;44.782;10.356;2023-08-21T07:50:52;29.50;99.90
39983;DHT22;25670;44.782;10.356;2023-08-21T07:53:22;29.60;99.90
39983;DHT22;25670;44.782;10.356;2023-08-21T07:55:48;29.60;99.90
39983;DHT22;25670;44.782;10.356;2023-08-21T07:58:15;29.70;99.90
39983;DHT22;25670;44.782;10.356;2023-08-21T08:00:41;29.90;99.90
39983;DHT22;25670;44.782;10.356;2023-08-21T08:03:08;30.00;99.90
39983;DHT22;25670;44.782;10.356;2023-08-21T08:05:35;30.00;99.90
39983;DHT22;25670;44.782;10.356;2023-08-21T08:08:01;30.10;99.90
39983;DHT22;25670;44.782;10.356;2023-08-21T08:10:27;30.20;99.90
39983;DHT22;25670;44.782;10.356;2023-08-21T08:12:53;30.20;99.90
39983;DHT22;25670;44.782;10.356;2023-08-21T08:15:21;30.20;99.90
39983;DHT22;25670;44.782;10.356;2023-08-21T08:17:47;30.30;99.90
39983;DHT22;25670;44.782;10.356;2023-08-21T08:20:13;30.40;99.90
39983;DHT22;25670;44.782;10.356;2023-08-21T08:22:41;30.50;99.90
39983;DHT22;25670;44.782;10.356;2023-08-21T08:25:08;30.60;99.90
39983;DHT22;25670;44.782;10.356;2023-08-21T08:27:34;30.50;99.90
39983;DHT22;25670;44.782;10.356;2023-08-21T08:30:04;30.60;99.90
39983;DHT22;25670;44.782;10.356;2023-08-21T08:32:30;30.80;99.90
39983;DHT22;25670;44.782;10.356;2023-08-21T08:34:56;30.90;99.90
39983;DHT22;25670;44.782;10.356;2023-08-21T08:37:26;31.50;99.90
39983;DHT22;25670;44.782;10.356;2023-08-21T08:39:52;31.60;99.90
39983;DHT22;25670;44.782;10.356;2023-08-21T08:42:18;31.20;99.90
39983;DHT22;25670;44.782;10.356;2023-08-21T08:44:44;31.30;99.90
39983;DHT22;25670;44.782;10.356;2023-08-21T08:47:11;31.60;99.90
39983;DHT22;25670;44.782;10.356;2023-08-21T08:49:37;31.30;99.90
39983;DHT22;25670;44.782;10.356;2023-08-21T08:52:05;31.40;99.90
39983;DHT22;25670;44.782;10.356;2023-08-21T08:54:32;31.40;99.90
39983;DHT22;25670;44.782;10.356;2023-08-21T08:57:08;31.40;99.90
39983;DHT22;25670;44.782;10.356;2023-08-21T08:59:35;31.40;99.90
39983;DHT22;25670;44.782;10.356;2023-08-21T09:02:01;32.00;99.90
39983;DHT22;25670;44.782;10.356;2023-08-21T09:04:28;31.60;99.90
39983;DHT22;25670;44.782;10.356;2023-08-21T09:07:13;31.70;99.90
39983;DHT22;25670;44.782;10.356;2023-08-21T09:09:48;31.70;99.90
39983;DHT22;25670;44.782;10.356;2023-08-21T09:12:19;31.70;99.90
39983;DHT22;25670;44.782;10.356;2023-08-21T09:14:46;31.80;99.90
39983;DHT22;25670;44.782;10.356;2023-08-21T09:17:15;31.90;99.90
39983;DHT22;25670;44.782;10.356;2023-08-21T09:19:42;31.90;99.90
39983;DHT22;25670;44.782;10.356;2023-08-21T09:22:15;31.90;99.90
39983;DHT22;25670;44.782;10.356;2023-08-21T09:25:00;32.00;99.90
39983;DHT22;25670;44.782;10.356;2023-08-21T09:27:27;32.00;99.90
39983;DHT22;25670;44.782;10.356;2023-08-21T09:29:53;32.20;99.90
39983;DHT22;25670;44.782;10.356;2023-08-21T09:32:20;32.30;99.90
39983;DHT22;25670;44.782;10.356;2023-08-21T09:34:47;32.20;99.90
39983;DHT22;25670;44.782;10.356;2023-08-21T09:37:13;32.40;99.90
39983;DHT22;25670;44.782;10.356;2023-08-21T09:39:39;32.50;99.90
39983;DHT22;25670;44.782;10.356;2023-08-21T09:42:07;32.50;99.90
39983;DHT22;25670;44.782;10.356;2023-08-21T09:44:40;32.50;99.90
39983;DHT22;25670;44.782;10.356;2023-08-21T09:47:12;32.70;99.90
39983;DHT22;25670;44.782;10.356;2023-08-21T09:49:39;32.90;99.90
39983;DHT22;25670;44.782;10.356;2023-08-21T09:52:06;33.00;99.90
39983;DHT22;25670;44.782;10.356;2023-08-21T09:54:34;33.00;99.90
39983;DHT22;25670;44.782;10.356;2023-08-21T09:57:02;32.90;99.90
39983;DHT22;25670;44.782;10.356;2023-08-21T09:59:32;33.00;99.90
39983;DHT22;25670;44.782;10.356;2023-08-21T10:01:59;33.00;99.90
39983;DHT22;25670;44.782;10.356;2023-08-21T10:04:32;33.00;99.90
39983;DHT22;25670;44.782;10.356;2023-08-21T10:07:01;32.90;99.90
39983;DHT22;25670;44.782;10.356;2023-08-21T10:09:29;32.90;99.90
39983;DHT22;25670;44.782;10.356;2023-08-21T10:11:56;33.00;99.90
39983;DHT22;25670;44.782;10.356;2023-08-21T10:14:23;33.10;99.90
39983;DHT22;25670;44.782;10.356;2023-08-21T10:16:53;33.10;99.90
39983;DHT22;25670;44.782;10.356;2023-08-21T10:19:20;33.20;99.90
39983;DHT22;25670;44.782;10.356;2023-08-21T10:21:47;33.20;99.90
39983;DHT22;25670;44.782;10.356;2023-08-21T10:24:35;33.30;99.90
39983;DHT22;25670;44.782;10.356;2023-08-21T10:27:02;31.50;99.50
39983;DHT22;25670;44.782;10.356;2023-08-21T10:29:29;33.30;99.90
39983;DHT22;25670;44.782;10.356;2023-08-21T10:32:01;33.30;99.90
39983;DHT22;25670;44.782;10.356;2023-08-21T10:34:36;33.40;99.90
39983;DHT22;25670;44.782;10.356;2023-08-21T10:37:07;33.60;99.90
39983;DHT22;25670;44.782;10.356;2023-08-21T10:39:36;33.60;99.80
39983;DHT22;25670;44.782;10.356;2023-08-21T10:42:10;33.60;99.80
39983;DHT22;25670;44.782;10.356;2023-08-21T10:47:20;33.70;99.20
39983;DHT22;25670;44.782;10.356;2023-08-21T10:49:48;33.80;99.30
39983;DHT22;25670;44.782;10.356;2023-08-21T10:52:58;34.00;99.30
39983;DHT22;25670;44.782;10.356;2023-08-21T10:55:08;34.20;99.30
39983;DHT22;25670;44.782;10.356;2023-08-21T10:57:38;34.40;98.80
39983;DHT22;25670;44.782;10.356;2023-08-21T11:00:06;34.30;98.00
39983;DHT22;25670;44.782;10.356;2023-08-21T11:02:36;34.30;98.20
39983;DHT22;25670;44.782;10.356;2023-08-21T11:05:02;34.20;97.90
39983;DHT22;25670;44.782;10.356;2023-08-21T11:07:30;34.20;97.80
39983;DHT22;25670;44.782;10.356;2023-08-21T11:09:56;34.30;97.50
39983;DHT22;25670;44.782;10.356;2023-08-21T11:12:24;34.50;97.70
39983;DHT22;25670;44.782;10.356;2023-08-21T11:14:50;34.50;98.00
39983;DHT22;25670;44.782;10.356;2023-08-21T11:17:18;34.70;97.40
39983;DHT22;25670;44.782;10.356;2023-08-21T11:19:44;34.70;97.00
39983;DHT22;25670;44.782;10.356;2023-08-21T11:22:11;34.70;96.60
39983;DHT22;25670;44.782;10.356;2023-08-21T11:27:04;34.80;96.20
39983;DHT22;25670;44.782;10.356;2023-08-21T11:29:38;34.90;96.10
39983;DHT22;25670;44.782;10.356;2023-08-21T11:32:23;35.00;95.70
39983;DHT22;25670;44.782;10.356;2023-08-21T11:34:56;35.20;95.70
39983;DHT22;25670;44.782;10.356;2023-08-21T11:37:24;35.30;95.70
39983;DHT22;25670;44.782;10.356;2023-08-21T11:39:58;35.30;95.60
39983;DHT22;25670;44.782;10.356;2023-08-21T11:42:32;35.40;95.40
39983;DHT22;25670;44.782;10.356;2023-08-21T11:45:00;35.60;95.10
39983;DHT22;25670;44.782;10.356;2023-08-21T11:47:34;35.70;94.10
39983;DHT22;25670;44.782;10.356;2023-08-21T11:50:05;35.80;94.30
39983;DHT22;25670;44.782;10.356;2023-08-21T11:52:32;35.80;94.10
39983;DHT22;25670;44.782;10.356;2023-08-21T11:54:59;36.20;94.60
39983;DHT22;25670;44.782;10.356;2023-08-21T11:57:25;35.90;94.50
39983;DHT22;25670;44.782;10.356;2023-08-21T11:59:53;35.90;94.40
39983;DHT22;25670;44.782;10.356;2023-08-21T12:02:24;36.20;94.80
39983;DHT22;25670;44.782;10.356;2023-08-21T12:05:01;36.50;93.70
39983;DHT22;25670;44.782;10.356;2023-08-21T12:07:28;36.80;93.00
39983;DHT22;25670;44.782;10.356;2023-08-21T12:09:54;36.80;92.20
39983;DHT22;25670;44.782;10.356;2023-08-21T12:12:20;36.70;92.10
39983;DHT22;25670;44.782;10.356;2023-08-21T12:14:46;36.80;92.60
39983;DHT22;25670;44.782;10.356;2023-08-21T12:17:13;36.70;92.30
39983;DHT22;25670;44.782;10.356;2023-08-21T12:19:39;36.90;92.50
39983;DHT22;25670;44.782;10.356;2023-08-21T12:22:05;36.70;91.50
39983;DHT22;25670;44.782;10.356;2023-08-21T12:24:34;36.70;91.50
39983;DHT22;25670;44.782;10.356;2023-08-21T12:27:01;36.80;91.80
39983;DHT22;25670;44.782;10.356;2023-08-21T12:29:27;37.10;91.60
39983;DHT22;25670;44.782;10.356;2023-08-21T12:31:53;36.90;91.30
39983;DHT22;25670;44.782;10.356;2023-08-21T12:34:20;37.00;91.30
39983;DHT22;25670;44.782;10.356;2023-08-21T12:36:46;37.20;91.40
39983;DHT22;25670;44.782;10.356;2023-08-21T12:39:12;37.50;91.00
39983;DHT22;25670;44.782;10.356;2023-08-21T12:41:40;37.70;90.60
39983;DHT22;25670;44.782;10.356;2023-08-21T12:44:06;37.70;89.40
39983;DHT22;25670;44.782;10.356;2023-08-21T12:46:35;37.60;89.20
39983;DHT22;25670;44.782;10.356;2023-08-21T12:49:02;37.70;89.40
39983;DHT22;25670;44.782;10.356;2023-08-21T12:53:55;37.70;88.40
39983;DHT22;25670;44.782;10.356;2023-08-21T12:56:23;37.90;89.30
39983;DHT22;25670;44.782;10.356;2023-08-21T12:58:49;37.90;87.60
39983;DHT22;25670;44.782;10.356;2023-08-21T13:01:15;37.90;87.40
39983;DHT22;25670;44.782;10.356;2023-08-21T13:03:45;38.10;87.50
39983;DHT22;25670;44.782;10.356;2023-08-21T13:06:15;38.20;86.50
39983;DHT22;25670;44.782;10.356;2023-08-21T13:11:08;38.50;85.60
39983;DHT22;25670;44.782;10.356;2023-08-21T13:13:36;38.10;86.20
39983;DHT22;25670;44.782;10.356;2023-08-21T13:16:02;38.10;86.60
39983;DHT22;25670;44.782;10.356;2023-08-21T13:18:29;38.20;86.20
39983;DHT22;25670;44.782;10.356;2023-08-21T13:20:55;38.10;85.70
39983;DHT22;25670;44.782;10.356;2023-08-21T13:23:22;38.30;85.50
39983;DHT22;25670;44.782;10.356;2023-08-21T13:25:49;38.30;86.10
39983;DHT22;25670;44.782;10.356;2023-08-21T13:28:15;38.40;85.90
39983;DHT22;25670;44.782;10.356;2023-08-21T13:30:41;38.60;85.60
39983;DHT22;25670;44.782;10.356;2023-08-21T13:33:07;38.70;85.00
39983;DHT22;25670;44.782;10.356;2023-08-21T13:35:33;38.90;84.20
39983;DHT22;25670;44.782;10.356;2023-08-21T13:38:00;39.00;83.60
39983;DHT22;25670;44.782;10.356;2023-08-21T13:40:27;38.90;82.50
39983;DHT22;25670;44.782;10.356;2023-08-21T13:42:54;38.80;82.20
39983;DHT22;25670;44.782;10.356;2023-08-21T13:45:22;38.90;83.70
39983;DHT22;25670;44.782;10.356;2023-08-21T13:47:49;38.90;83.20
39983;DHT22;25670;44.782;10.356;2023-08-21T13:50:17;39.20;82.60
39983;DHT22;25670;44.782;10.356;2023-08-21T13:52:43;39.20;81.70
39983;DHT22;25670;44.782;10.356;2023-08-21T13:55:10;39.00;81.10
39983;DHT22;25670;44.782;10.356;2023-08-21T13:57:37;39.00;82.80
39983;DHT22;25670;44.782;10.356;2023-08-21T14:00:04;39.10;81.70
39983;DHT22;25670;44.782;10.356;2023-08-21T14:02:34;39.20;81.60
39983;DHT22;25670;44.782;10.356;2023-08-21T14:05:01;39.50;81.50
39983;DHT22;25670;44.782;10.356;2023-08-21T14:07:29;39.60;80.90
39983;DHT22;25670;44.782;10.356;2023-08-21T14:09:55;40.00;80.80
39983;DHT22;25670;44.782;10.356;2023-08-21T14:12:21;40.20;80.10
39983;DHT22;25670;44.782;10.356;2023-08-21T14:14:48;40.10;78.90
39983;DHT22;25670;44.782;10.356;2023-08-21T14:17:14;39.30;78.90
39983;DHT22;25670;44.782;10.356;2023-08-21T14:19:40;38.90;79.80
39983;DHT22;25670;44.782;10.356;2023-08-21T14:22:07;39.10;79.80
39983;DHT22;25670;44.782;10.356;2023-08-21T14:24:33;39.40;80.40
39983;DHT22;25670;44.782;10.356;2023-08-21T14:26:59;39.40;79.90
39983;DHT22;25670;44.782;10.356;2023-08-21T14:29:26;39.80;80.00
39983;DHT22;25670;44.782;10.356;2023-08-21T14:34:23;39.80;77.70
39983;DHT22;25670;44.782;10.356;2023-08-21T14:36:49;39.60;78.80
39983;DHT22;25670;44.782;10.356;2023-08-21T14:41:42;40.00;78.00
39983;DHT22;25670;44.782;10.356;2023-08-21T14:44:08;40.10;78.50
39983;DHT22;25670;44.782;10.356;2023-08-21T14:46:36;40.10;77.50
39983;DHT22;25670;44.782;10.356;2023-08-21T14:49:03;39.90;77.10
39983;DHT22;25670;44.782;10.356;2023-08-21T14:51:29;39.80;77.00
39983;DHT22;25670;44.782;10.356;2023-08-21T14:53:55;39.90;78.30
39983;DHT22;25670;44.782;10.356;2023-08-21T14:56:22;39.80;77.60
39983;DHT22;25670;44.782;10.356;2023-08-21T14:58:48;40.20;78.70
39983;DHT22;25670;44.782;10.356;2023-08-21T15:01:14;40.60;78.30
39983;DHT22;25670;44.782;10.356;2023-08-21T15:03:42;40.90;77.20
39983;DHT22;25670;44.782;10.356;2023-08-21T15:06:09;40.80;77.60
39983;DHT22;25670;44.782;10.356;2023-08-21T15:08:37;41.00;76.90
39983;DHT22;25670;44.782;10.356;2023-08-21T15:11:04;41.20;77.30
39983;DHT22;25670;44.782;10.356;2023-08-21T15:13:30;40.90;77.10
39983;DHT22;25670;44.782;10.356;2023-08-21T15:15:57;40.80;75.40
39983;DHT22;25670;44.782;10.356;2023-08-21T15:18:23;40.40;75.20
39983;DHT22;25670;44.782;10.356;2023-08-21T15:20:49;40.20;75.90
39983;DHT22;25670;44.782;10.356;2023-08-21T15:23:16;40.20;76.20
39983;DHT22;25670;44.782;10.356;2023-08-21T15:25:42;40.40;76.60
39983;DHT22;25670;44.782;10.356;2023-08-21T15:28:08;40.30;76.00
39983;DHT22;25670;44.782;10.356;2023-08-21T15:30:34;40.30;75.00
39983;DHT22;25670;44.782;10.356;2023-08-21T15:33:01;40.70;75.60
39983;DHT22;25670;44.782;10.356;2023-08-21T15:35:27;41.00;73.50
39983;DHT22;25670;44.782;10.356;2023-08-21T15:37:53;41.20;74.00
39983;DHT22;25670;44.782;10.356;2023-08-21T15:40:23;41.40;74.10
39983;DHT22;25670;44.782;10.356;2023-08-21T15:42:49;41.40;74.30
39983;DHT22;25670;44.782;10.356;2023-08-21T15:45:15;41.50;73.70
39983;DHT22;25670;44.782;10.356;2023-08-21T15:47:41;41.10;73.20
39983;DHT22;25670;44.782;10.356;2023-08-21T15:50:08;41.20;73.10
39983;DHT22;25670;44.782;10.356;2023-08-21T15:52:34;41.40;72.50
39983;DHT22;25670;44.782;10.356;2023-08-21T15:55:00;41.30;71.70
39983;DHT22;25670;44.782;10.356;2023-08-21T15:57:27;40.90;72.20
39983;DHT22;25670;44.782;10.356;2023-08-21T15:59:53;41.00;71.80
39983;DHT22;25670;44.782;10.356;2023-08-21T16:02:19;41.20;71.60
39983;DHT22;25670;44.782;10.356;2023-08-21T16:04:45;41.40;72.10
39983;DHT22;25670;44.782;10.356;2023-08-21T16:07:12;41.40;72.20
39983;DHT22;25670;44.782;10.356;2023-08-21T16:09:38;41.30;71.20
39983;DHT22;25670;44.782;10.356;2023-08-21T16:12:05;41.50;71.40